aviador You're here:

LCPH Decoded Metar

PAPHOS in CYPRUS
Report Time2018-04-21 07:30:00
UTC Time2018-04-21 07:59:25
Flight Rules vfr VFR
Wind140° at 12 kt
W.Decomp.*RWY 11: 10.8 kt HW 5.3 kt RCW
W.Rank140° ranks 23
Current wind is above 140° avg. (7.8)
Visibility9999 m
Phenomena:N/A
Clouds:Few 030 Hf
Scattered 045 Hf
Expected CloudBase > 3,200 ft AGL from Temp-Dew spread
CeilingNone
Temp22°C (ISA +7)
Dew Point14°C (61% RH)
AAT19.0°C
QNH1006 hPa
Density Alt1,299 ft
Elevation26 ft
Report Wrong Elevation
Raw Report
LCPH 210730Z 14012KT 9999 FEW030 SCT045 22/14 Q1006=

Extra information for LCPH:More info

Metar Taf Metar & Taf Last 4 Metars F.Rules Stats Wind Profile Meteogram Temp Stats Airport Information Weather charts Add Link Nearby VenuesMetar ALERT Operation Metar Decoded Social comments